sensor_id;sensor_type;location;lat;lon;timestamp;pressure;altitude;pressure_sealevel;temperature;humidity
64876;BME280;51369;49.862;9.908;2024-03-06T00:02:08;98352.16;;;8.19;87.25
64876;BME280;51369;49.862;9.908;2024-03-06T00:04:34;98354.81;;;8.20;86.67
64876;BME280;51369;49.862;9.908;2024-03-06T00:07:00;98366.38;;;8.22;87.26
64876;BME280;51369;49.862;9.908;2024-03-06T00:09:26;98362.78;;;8.23;86.99
64876;BME280;51369;49.862;9.908;2024-03-06T00:11:55;98354.75;;;8.22;86.59
64876;BME280;51369;49.862;9.908;2024-03-06T00:14:21;98357.44;;;8.22;86.50
64876;BME280;51369;49.862;9.908;2024-03-06T00:16:49;98348.50;;;8.21;86.74
64876;BME280;51369;49.862;9.908;2024-03-06T00:19:19;98354.84;;;8.19;86.55
64876;BME280;51369;49.862;9.908;2024-03-06T00:21:45;98351.34;;;8.16;86.28
64876;BME280;51369;49.862;9.908;2024-03-06T00:24:12;98364.84;;;8.15;86.74
64876;BME280;51369;49.862;9.908;2024-03-06T00:26:40;98369.38;;;8.13;86.20
64876;BME280;51369;49.862;9.908;2024-03-06T00:29:06;98366.78;;;8.10;86.18
64876;BME280;51369;49.862;9.908;2024-03-06T00:31:31;98364.16;;;8.08;86.01
64876;BME280;51369;49.862;9.908;2024-03-06T00:33:57;98370.50;;;8.06;86.40
64876;BME280;51369;49.862;9.908;2024-03-06T00:36:22;98381.38;;;8.03;85.59
64876;BME280;51369;49.862;9.908;2024-03-06T00:38:48;98373.44;;;7.98;86.04
64876;BME280;51369;49.862;9.908;2024-03-06T00:41:13;98378.03;;;7.95;86.13
64876;BME280;51369;49.862;9.908;2024-03-06T00:43:39;98379.91;;;7.93;85.36
64876;BME280;51369;49.862;9.908;2024-03-06T00:46:04;98371.94;;;7.90;85.94
64876;BME280;51369;49.862;9.908;2024-03-06T00:48:30;98380.97;;;7.87;85.99
64876;BME280;51369;49.862;9.908;2024-03-06T00:50:55;98381.94;;;7.84;85.17
64876;BME280;51369;49.862;9.908;2024-03-06T00:53:20;98393.69;;;7.82;85.54
64876;BME280;51369;49.862;9.908;2024-03-06T00:55:46;98385.72;;;7.79;85.91
64876;BME280;51369;49.862;9.908;2024-03-06T00:58:11;98395.53;;;7.80;85.70
64876;BME280;51369;49.862;9.908;2024-03-06T01:00:37;98391.97;;;7.79;86.46
64876;BME280;51369;49.862;9.908;2024-03-06T01:03:03;98392.84;;;7.80;86.03
64876;BME280;51369;49.862;9.908;2024-03-06T01:05:29;98392.84;;;7.80;86.47
64876;BME280;51369;49.862;9.908;2024-03-06T01:07:54;98394.59;;;7.81;86.93
64876;BME280;51369;49.862;9.908;2024-03-06T01:10:22;98393.63;;;7.83;86.48
64876;BME280;51369;49.862;9.908;2024-03-06T01:12:48;98400.78;;;7.84;87.11
64876;BME280;51369;49.862;9.908;2024-03-06T01:15:13;98401.59;;;7.87;86.81
64876;BME280;51369;49.862;9.908;2024-03-06T01:17:39;98408.75;;;7.88;87.14
64876;BME280;51369;49.862;9.908;2024-03-06T01:20:05;98405.13;;;7.89;87.23
64876;BME280;51369;49.862;9.908;2024-03-06T01:22:33;98405.13;;;7.89;87.45
64876;BME280;51369;49.862;9.908;2024-03-06T01:24:58;98410.50;;;7.89;86.92
64876;BME280;51369;49.862;9.908;2024-03-06T01:27:24;98414.06;;;7.89;86.54
64876;BME280;51369;49.862;9.908;2024-03-06T01:29:50;98417.63;;;7.90;86.57
64876;BME280;51369;49.862;9.908;2024-03-06T01:32:15;98409.53;;;7.91;86.83
64876;BME280;51369;49.862;9.908;2024-03-06T01:34:41;98408.66;;;7.91;87.29
64876;BME280;51369;49.862;9.908;2024-03-06T01:37:06;98410.41;;;7.92;86.63
64876;BME280;51369;49.862;9.908;2024-03-06T01:39:32;98406.78;;;7.93;86.80
64876;BME280;51369;49.862;9.908;2024-03-06T01:41:58;98413.91;;;7.94;87.10
64876;BME280;51369;49.862;9.908;2024-03-06T01:44:23;98414.81;;;7.94;87.59
64876;BME280;51369;49.862;9.908;2024-03-06T01:46:49;98413.91;;;7.94;86.78
64876;BME280;51369;49.862;9.908;2024-03-06T01:49:17;98422.88;;;7.94;86.84
64876;BME280;51369;49.862;9.908;2024-03-06T01:51:50;98422.91;;;7.93;86.89
64876;BME280;51369;49.862;9.908;2024-03-06T01:54:16;98422.03;;;7.92;86.84
64876;BME280;51369;49.862;9.908;2024-03-06T01:56:46;98428.34;;;7.91;86.67
64876;BME280;51369;49.862;9.908;2024-03-06T01:59:16;98422.91;;;7.93;87.13
64876;BME280;51369;49.862;9.908;2024-03-06T02:01:42;98424.53;;;7.98;86.57
64876;BME280;51369;49.862;9.908;2024-03-06T02:04:08;98422.63;;;8.02;86.50
64876;BME280;51369;49.862;9.908;2024-03-06T02:06:41;98428.00;;;8.02;86.59
64876;BME280;51369;49.862;9.908;2024-03-06T02:09:06;98421.75;;;8.01;86.37
64876;BME280;51369;49.862;9.908;2024-03-06T02:11:32;98419.06;;;8.01;86.97
64876;BME280;51369;49.862;9.908;2024-03-06T02:13:58;98412.81;;;8.01;86.67
64876;BME280;51369;49.862;9.908;2024-03-06T02:16:24;98413.63;;;8.03;86.76
64876;BME280;51369;49.862;9.908;2024-03-06T02:18:56;98408.25;;;8.03;86.42
64876;BME280;51369;49.862;9.908;2024-03-06T02:21:26;98409.97;;;8.05;86.75
64876;BME280;51369;49.862;9.908;2024-03-06T02:23:51;98405.47;;;8.06;86.50
64876;BME280;51369;49.862;9.908;2024-03-06T02:26:21;98409.09;;;8.05;86.71
64876;BME280;51369;49.862;9.908;2024-03-06T02:28:47;98417.97;;;8.07;86.66
64876;BME280;51369;49.862;9.908;2024-03-06T02:31:13;98409.97;;;8.05;86.12
64876;BME280;51369;49.862;9.908;2024-03-06T02:33:39;98419.78;;;8.06;86.46
64876;BME280;51369;49.862;9.908;2024-03-06T02:36:05;98409.97;;;8.05;86.08
64876;BME280;51369;49.862;9.908;2024-03-06T02:38:31;98407.28;;;8.05;86.52
64876;BME280;51369;49.862;9.908;2024-03-06T02:40:56;98414.41;;;8.06;86.53
64876;BME280;51369;49.862;9.908;2024-03-06T02:43:21;98408.16;;;8.06;86.95
64876;BME280;51369;49.862;9.908;2024-03-06T02:45:47;98404.53;;;8.07;86.42
64876;BME280;51369;49.862;9.908;2024-03-06T02:48:12;98403.59;;;8.08;86.84
64876;BME280;51369;49.862;9.908;2024-03-06T02:50:37;98401.78;;;8.08;86.51
64876;BME280;51369;49.862;9.908;2024-03-06T02:53:03;98406.28;;;8.08;86.25
64876;BME280;51369;49.862;9.908;2024-03-06T02:55:28;98393.78;;;8.07;86.92
64876;BME280;51369;49.862;9.908;2024-03-06T02:57:53;98401.91;;;8.05;86.31
64876;BME280;51369;49.862;9.908;2024-03-06T03:00:19;98405.50;;;8.04;86.45
64876;BME280;51369;49.862;9.908;2024-03-06T03:02:44;98405.56;;;8.03;86.12
64876;BME280;51369;49.862;9.908;2024-03-06T03:05:10;98405.63;;;8.01;86.29
64876;BME280;51369;49.862;9.908;2024-03-06T03:07:36;98405.63;;;8.01;86.44
64876;BME280;51369;49.862;9.908;2024-03-06T03:10:01;98407.41;;;8.01;85.88
64876;BME280;51369;49.862;9.908;2024-03-06T03:12:26;98400.34;;;7.98;86.08
64876;BME280;51369;49.862;9.908;2024-03-06T03:14:51;98395.97;;;7.94;86.00
64876;BME280;51369;49.862;9.908;2024-03-06T03:17:20;98396.09;;;7.91;85.41
64876;BME280;51369;49.862;9.908;2024-03-06T03:19:45;98406.00;;;7.89;85.20
64876;BME280;51369;49.862;9.908;2024-03-06T03:22:10;98398.09;;;7.84;85.84
64876;BME280;51369;49.862;9.908;2024-03-06T03:24:36;98398.22;;;7.80;85.64
64876;BME280;51369;49.862;9.908;2024-03-06T03:27:02;98402.88;;;7.75;85.25
64876;BME280;51369;49.862;9.908;2024-03-06T03:29:28;98402.97;;;7.72;85.66
64876;BME280;51369;49.862;9.908;2024-03-06T03:31:54;98403.06;;;7.69;85.78
64876;BME280;51369;49.862;9.908;2024-03-06T03:34:20;98404.91;;;7.67;85.84
64876;BME280;51369;49.862;9.908;2024-03-06T03:36:46;98404.13;;;7.63;85.99
64876;BME280;51369;49.862;9.908;2024-03-06T03:39:12;98399.66;;;7.62;85.67
64876;BME280;51369;49.862;9.908;2024-03-06T03:41:47;98396.19;;;7.59;85.74
64876;BME280;51369;49.862;9.908;2024-03-06T03:44:14;98400.78;;;7.55;85.54
64876;BME280;51369;49.862;9.908;2024-03-06T03:46:39;98403.59;;;7.50;85.57
64876;BME280;51369;49.862;9.908;2024-03-06T03:49:05;98403.75;;;7.46;85.90
64876;BME280;51369;49.862;9.908;2024-03-06T03:51:30;98402.06;;;7.42;85.39
64876;BME280;51369;49.862;9.908;2024-03-06T03:53:55;98415.59;;;7.39;85.96
64876;BME280;51369;49.862;9.908;2024-03-06T03:56:21;98416.56;;;7.36;85.81
64876;BME280;51369;49.862;9.908;2024-03-06T03:58:47;98421.16;;;7.33;85.58
64876;BME280;51369;49.862;9.908;2024-03-06T04:01:12;98414.94;;;7.31;85.80
64876;BME280;51369;49.862;9.908;2024-03-06T04:03:37;98424.84;;;7.29;85.97
64876;BME280;51369;49.862;9.908;2024-03-06T04:06:03;98421.41;;;7.24;86.03
64876;BME280;51369;49.862;9.908;2024-03-06T04:08:29;98431.41;;;7.18;86.04
64876;BME280;51369;49.862;9.908;2024-03-06T04:10:54;98435.09;;;7.14;85.76
64876;BME280;51369;49.862;9.908;2024-03-06T04:13:19;98439.72;;;7.09;85.45
64876;BME280;51369;49.862;9.908;2024-03-06T04:15:46;98442.47;;;7.06;85.92
64876;BME280;51369;49.862;9.908;2024-03-06T04:18:11;98440.81;;;7.02;85.95
64876;BME280;51369;49.862;9.908;2024-03-06T04:20:36;98440.00;;;6.99;85.80
64876;BME280;51369;49.862;9.908;2024-03-06T04:23:02;98443.66;;;6.96;86.44
64876;BME280;51369;49.862;9.908;2024-03-06T04:25:27;98441.91;;;6.95;86.43
64876;BME280;51369;49.862;9.908;2024-03-06T04:27:53;98450.78;;;6.97;86.36
64876;BME280;51369;49.862;9.908;2024-03-06T04:30:18;98454.31;;;6.99;87.13
64876;BME280;51369;49.862;9.908;2024-03-06T04:32:44;98450.69;;;7.00;87.00
64876;BME280;51369;49.862;9.908;2024-03-06T04:35:10;98460.47;;;7.03;87.27
64876;BME280;51369;49.862;9.908;2024-03-06T04:37:35;98461.28;;;7.06;87.32
64876;BME280;51369;49.862;9.908;2024-03-06T04:40:01;98471.94;;;7.09;87.48
64876;BME280;51369;49.862;9.908;2024-03-06T04:42:28;98471.84;;;7.12;87.48
64876;BME280;51369;49.862;9.908;2024-03-06T04:44:53;98473.66;;;7.12;87.29
64876;BME280;51369;49.862;9.908;2024-03-06T04:47:19;98481.72;;;7.12;87.10
64876;BME280;51369;49.862;9.908;2024-03-06T04:49:44;98474.53;;;7.12;87.54
64876;BME280;51369;49.862;9.908;2024-03-06T04:52:10;98475.38;;;7.14;87.39
64876;BME280;51369;49.862;9.908;2024-03-06T04:54:35;98482.41;;;7.18;87.30
64876;BME280;51369;49.862;9.908;2024-03-06T04:57:00;98482.34;;;7.22;87.39
64876;BME280;51369;49.862;9.908;2024-03-06T04:59:26;98487.63;;;7.25;87.15
64876;BME280;51369;49.862;9.908;2024-03-06T05:01:52;98485.78;;;7.27;87.32
64876;BME280;51369;49.862;9.908;2024-03-06T05:04:17;98489.25;;;7.30;87.18
64876;BME280;51369;49.862;9.908;2024-03-06T05:06:43;98485.66;;;7.31;87.19
64876;BME280;51369;49.862;9.908;2024-03-06T05:09:08;98487.38;;;7.34;87.08
64876;BME280;51369;49.862;9.908;2024-03-06T05:11:37;98488.25;;;7.34;87.31
64876;BME280;51369;49.862;9.908;2024-03-06T05:14:03;98493.56;;;7.36;86.81
64876;BME280;51369;49.862;9.908;2024-03-06T05:16:28;98490.84;;;7.37;87.06
64876;BME280;51369;49.862;9.908;2024-03-06T05:18:54;98503.34;;;7.38;86.77
64876;BME280;51369;49.862;9.908;2024-03-06T05:21:22;98507.81;;;7.39;86.91
64876;BME280;51369;49.862;9.908;2024-03-06T05:23:48;98500.59;;;7.41;86.71
64876;BME280;51369;49.862;9.908;2024-03-06T05:26:14;98504.16;;;7.42;86.52
64876;BME280;51369;49.862;9.908;2024-03-06T05:28:40;98505.91;;;7.43;86.49
64876;BME280;51369;49.862;9.908;2024-03-06T05:31:16;98501.41;;;7.43;86.91
64876;BME280;51369;49.862;9.908;2024-03-06T05:33:43;98504.94;;;7.45;86.71
64876;BME280;51369;49.862;9.908;2024-03-06T05:36:09;98508.47;;;7.47;86.27
64876;BME280;51369;49.862;9.908;2024-03-06T05:38:34;98514.72;;;7.48;86.27
64876;BME280;51369;49.862;9.908;2024-03-06T05:40:59;98513.81;;;7.49;86.53
64876;BME280;51369;49.862;9.908;2024-03-06T05:43:25;98515.56;;;7.50;86.52
64876;BME280;51369;49.862;9.908;2024-03-06T05:45:50;98525.34;;;7.53;86.45
64876;BME280;51369;49.862;9.908;2024-03-06T05:48:15;98521.78;;;7.52;86.92
64876;BME280;51369;49.862;9.908;2024-03-06T05:50:41;98522.59;;;7.54;86.84
64876;BME280;51369;49.862;9.908;2024-03-06T05:53:06;98522.56;;;7.56;86.32
64876;BME280;51369;49.862;9.908;2024-03-06T05:55:31;98532.38;;;7.57;86.62
64876;BME280;51369;49.862;9.908;2024-03-06T05:57:57;98530.53;;;7.59;86.59
64876;BME280;51369;49.862;9.908;2024-03-06T06:00:22;98533.22;;;7.59;86.18
64876;BME280;51369;49.862;9.908;2024-03-06T06:02:48;98535.03;;;7.58;85.80
64876;BME280;51369;49.862;9.908;2024-03-06T06:05:13;98532.38;;;7.57;85.85
64876;BME280;51369;49.862;9.908;2024-03-06T06:07:39;98531.50;;;7.56;85.99
64876;BME280;51369;49.862;9.908;2024-03-06T06:10:05;98533.28;;;7.57;85.90
64876;BME280;51369;49.862;9.908;2024-03-06T06:12:35;98543.09;;;7.58;86.00
64876;BME280;51369;49.862;9.908;2024-03-06T06:15:00;98540.41;;;7.58;85.95
64876;BME280;51369;49.862;9.908;2024-03-06T06:17:26;98544.84;;;7.59;86.15
64876;BME280;51369;49.862;9.908;2024-03-06T06:19:51;98543.88;;;7.62;86.08
64876;BME280;51369;49.862;9.908;2024-03-06T06:22:17;98549.25;;;7.62;86.42
64876;BME280;51369;49.862;9.908;2024-03-06T06:24:42;98550.09;;;7.64;86.59
64876;BME280;51369;49.862;9.908;2024-03-06T06:27:07;98550.97;;;7.64;86.70
64876;BME280;51369;49.862;9.908;2024-03-06T06:29:34;98556.34;;;7.64;86.69
64876;BME280;51369;49.862;9.908;2024-03-06T06:31:59;98551.78;;;7.68;86.15
64876;BME280;51369;49.862;9.908;2024-03-06T06:34:24;98553.59;;;7.67;85.87
64876;BME280;51369;49.862;9.908;2024-03-06T06:36:53;98554.47;;;7.68;86.14
64876;BME280;51369;49.862;9.908;2024-03-06T06:39:18;98556.22;;;7.69;85.61
64876;BME280;51369;49.862;9.908;2024-03-06T06:41:43;98566.00;;;7.71;86.15
64876;BME280;51369;49.862;9.908;2024-03-06T06:44:09;98571.38;;;7.71;85.19
64876;BME280;51369;49.862;9.908;2024-03-06T06:46:34;98571.34;;;7.73;86.06
64876;BME280;51369;49.862;9.908;2024-03-06T06:48:59;98572.22;;;7.73;85.79
64876;BME280;51369;49.862;9.908;2024-03-06T06:51:25;98572.13;;;7.76;85.33
64876;BME280;51369;49.862;9.908;2024-03-06T06:53:50;98575.72;;;7.77;85.79
64876;BME280;51369;49.862;9.908;2024-03-06T06:56:15;98588.19;;;7.79;85.73
64876;BME280;51369;49.862;9.908;2024-03-06T06:58:41;98583.63;;;7.81;85.95
64876;BME280;51369;49.862;9.908;2024-03-06T07:01:09;98591.63;;;7.84;85.57
64876;BME280;51369;49.862;9.908;2024-03-06T07:03:35;98584.38;;;7.87;85.83
64876;BME280;51369;49.862;9.908;2024-03-06T07:06:00;98588.75;;;7.91;85.46
64876;BME280;51369;49.862;9.908;2024-03-06T07:08:25;98589.59;;;7.93;85.96
64876;BME280;51369;49.862;9.908;2024-03-06T07:10:51;98595.59;;;8.02;85.69
64876;BME280;51369;49.862;9.908;2024-03-06T07:13:19;98590.03;;;8.08;85.89
64876;BME280;51369;49.862;9.908;2024-03-06T07:15:45;98597.09;;;8.12;85.77
64876;BME280;51369;49.862;9.908;2024-03-06T07:18:10;98605.94;;;8.16;85.30
64876;BME280;51369;49.862;9.908;2024-03-06T07:20:36;98597.81;;;8.18;85.63
64876;BME280;51369;49.862;9.908;2024-03-06T07:23:01;98600.34;;;8.24;85.63
64876;BME280;51369;49.862;9.908;2024-03-06T07:25:27;98594.97;;;8.24;85.75
64876;BME280;51369;49.862;9.908;2024-03-06T07:27:52;98600.28;;;8.25;85.73
64876;BME280;51369;49.862;9.908;2024-03-06T07:30:18;98602.84;;;8.30;85.17
64876;BME280;51369;49.862;9.908;2024-03-06T07:32:43;98594.72;;;8.31;85.04
64876;BME280;51369;49.862;9.908;2024-03-06T07:35:08;98601.81;;;8.35;84.81
64876;BME280;51369;49.862;9.908;2024-03-06T07:37:34;98605.19;;;8.42;85.48
64876;BME280;51369;49.862;9.908;2024-03-06T07:39:59;98603.19;;;8.48;84.95
64876;BME280;51369;49.862;9.908;2024-03-06T07:42:25;98609.31;;;8.54;84.64
64876;BME280;51369;49.862;9.908;2024-03-06T07:44:51;98610.06;;;8.59;84.39
64876;BME280;51369;49.862;9.908;2024-03-06T07:47:16;98607.19;;;8.65;84.16
64876;BME280;51369;49.862;9.908;2024-03-06T07:49:41;98616.00;;;8.68;84.18
64876;BME280;51369;49.862;9.908;2024-03-06T07:52:07;98620.38;;;8.72;84.01
64876;BME280;51369;49.862;9.908;2024-03-06T07:54:32;98630.06;;;8.78;84.01
64876;BME280;51369;49.862;9.908;2024-03-06T07:56:58;98626.34;;;8.82;83.75
64876;BME280;51369;49.862;9.908;2024-03-06T07:59:23;98625.31;;;8.86;83.82
64876;BME280;51369;49.862;9.908;2024-03-06T08:01:49;98624.25;;;8.92;84.45
64876;BME280;51369;49.862;9.908;2024-03-06T08:04:14;98632.16;;;8.96;84.25
64876;BME280;51369;49.862;9.908;2024-03-06T08:06:40;98626.69;;;8.99;84.11
64876;BME280;51369;49.862;9.908;2024-03-06T08:09:05;98631.91;;;9.04;83.72
64876;BME280;51369;49.862;9.908;2024-03-06T08:11:32;98633.53;;;9.09;82.98
64876;BME280;51369;49.862;9.908;2024-03-06T08:13:58;98625.31;;;9.14;83.41
64876;BME280;51369;49.862;9.908;2024-03-06T08:16:24;98630.53;;;9.19;82.67
64876;BME280;51369;49.862;9.908;2024-03-06T08:18:49;98624.94;;;9.25;83.12
64876;BME280;51369;49.862;9.908;2024-03-06T08:21:14;98628.28;;;9.33;83.01
64876;BME280;51369;49.862;9.908;2024-03-06T08:23:40;98640.75;;;9.35;82.99
64876;BME280;51369;49.862;9.908;2024-03-06T08:26:05;98639.72;;;9.39;83.03
64876;BME280;51369;49.862;9.908;2024-03-06T08:28:30;98633.34;;;9.42;82.39
64876;BME280;51369;49.862;9.908;2024-03-06T08:30:56;98636.03;;;9.42;81.92
64876;BME280;51369;49.862;9.908;2024-03-06T08:33:21;98638.75;;;9.42;81.89
64876;BME280;51369;49.862;9.908;2024-03-06T08:35:47;98642.25;;;9.44;82.00
64876;BME280;51369;49.862;9.908;2024-03-06T08:38:13;98647.66;;;9.44;82.20
64876;BME280;51369;49.862;9.908;2024-03-06T08:40:38;98649.38;;;9.46;81.26
64876;BME280;51369;49.862;9.908;2024-03-06T08:43:07;98647.44;;;9.50;81.73
64876;BME280;51369;49.862;9.908;2024-03-06T08:45:34;98646.50;;;9.51;81.46
64876;BME280;51369;49.862;9.908;2024-03-06T08:47:59;98642.84;;;9.54;81.00
64876;BME280;51369;49.862;9.908;2024-03-06T08:50:25;98651.75;;;9.56;81.58
64876;BME280;51369;49.862;9.908;2024-03-06T08:52:50;98655.31;;;9.56;81.44
64876;BME280;51369;49.862;9.908;2024-03-06T08:55:16;98649.88;;;9.58;80.72
64876;BME280;51369;49.862;9.908;2024-03-06T08:57:42;98650.75;;;9.58;81.49
64876;BME280;51369;49.862;9.908;2024-03-06T09:00:08;98659.78;;;9.57;81.05
64876;BME280;51369;49.862;9.908;2024-03-06T09:02:39;98663.50;;;9.53;80.88
64876;BME280;51369;49.862;9.908;2024-03-06T09:05:06;98669.94;;;9.49;80.82
64876;BME280;51369;49.862;9.908;2024-03-06T09:07:32;98675.44;;;9.46;80.79
64876;BME280;51369;49.862;9.908;2024-03-06T09:10:04;98675.47;;;9.44;81.43
64876;BME280;51369;49.862;9.908;2024-03-06T09:12:31;98674.66;;;9.42;81.10
64876;BME280;51369;49.862;9.908;2024-03-06T09:14:56;98677.28;;;9.44;82.02
64876;BME280;51369;49.862;9.908;2024-03-06T09:17:21;98687.16;;;9.45;82.60
64876;BME280;51369;49.862;9.908;2024-03-06T09:19:47;98681.75;;;9.45;82.20
64876;BME280;51369;49.862;9.908;2024-03-06T09:22:12;98683.53;;;9.46;82.67
64876;BME280;51369;49.862;9.908;2024-03-06T09:24:37;98701.44;;;9.47;82.40
64876;BME280;51369;49.862;9.908;2024-03-06T09:27:04;98696.88;;;9.49;82.21
64876;BME280;51369;49.862;9.908;2024-03-06T09:29:29;98698.66;;;9.50;82.16
64876;BME280;51369;49.862;9.908;2024-03-06T09:31:55;98695.91;;;9.52;82.54
64876;BME280;51369;49.862;9.908;2024-03-06T09:34:20;98697.56;;;9.56;83.05
64876;BME280;51369;49.862;9.908;2024-03-06T09:36:47;98702.84;;;9.59;83.26
64876;BME280;51369;49.862;9.908;2024-03-06T09:39:14;98707.25;;;9.61;82.61
64876;BME280;51369;49.862;9.908;2024-03-06T09:41:45;98703.59;;;9.64;83.54
64876;BME280;51369;49.862;9.908;2024-03-06T09:44:11;98699.91;;;9.66;82.53
64876;BME280;51369;49.862;9.908;2024-03-06T09:46:37;98711.53;;;9.68;82.46
64876;BME280;51369;49.862;9.908;2024-03-06T09:49:04;98706.97;;;9.70;83.31
64876;BME280;51369;49.862;9.908;2024-03-06T09:51:29;98707.72;;;9.74;83.31
64876;BME280;51369;49.862;9.908;2024-03-06T09:53:55;98708.50;;;9.77;82.79
64876;BME280;51369;49.862;9.908;2024-03-06T09:56:21;98716.56;;;9.79;82.41
64876;BME280;51369;49.862;9.908;2024-03-06T09:58:46;98717.38;;;9.81;82.70
64876;BME280;51369;49.862;9.908;2024-03-06T10:01:16;98715.63;;;9.80;81.80
64876;BME280;51369;49.862;9.908;2024-03-06T10:03:42;98720.78;;;9.86;82.14
64876;BME280;51369;49.862;9.908;2024-03-06T10:06:08;98721.78;;;9.84;81.27
64876;BME280;51369;49.862;9.908;2024-03-06T10:08:34;98721.84;;;9.82;81.59
64876;BME280;51369;49.862;9.908;2024-03-06T10:11:00;98724.44;;;9.85;81.05
64876;BME280;51369;49.862;9.908;2024-03-06T10:13:26;98718.03;;;9.88;81.84
64876;BME280;51369;49.862;9.908;2024-03-06T10:16:03;98725.19;;;9.89;81.94
64876;BME280;51369;49.862;9.908;2024-03-06T10:18:30;98725.94;;;9.94;81.59
64876;BME280;51369;49.862;9.908;2024-03-06T10:20:56;98734.78;;;9.97;81.16
64876;BME280;51369;49.862;9.908;2024-03-06T10:23:22;98732.03;;;9.99;81.32
64876;BME280;51369;49.862;9.908;2024-03-06T10:25:48;98735.53;;;10.02;81.75
64876;BME280;51369;49.862;9.908;2024-03-06T10:28:19;98736.28;;;10.06;81.04
64876;BME280;51369;49.862;9.908;2024-03-06T10:30:46;98741.59;;;10.09;81.48
64876;BME280;51369;49.862;9.908;2024-03-06T10:33:12;98742.31;;;10.14;81.56
64876;BME280;51369;49.862;9.908;2024-03-06T10:35:40;98734.94;;;10.19;81.19
64876;BME280;51369;49.862;9.908;2024-03-06T10:38:07;98736.50;;;10.26;81.18
64876;BME280;51369;49.862;9.908;2024-03-06T10:40:37;98737.16;;;10.33;81.83
64876;BME280;51369;49.862;9.908;2024-03-06T10:43:04;98728.91;;;10.37;80.60
64876;BME280;51369;49.862;9.908;2024-03-06T10:47:59;98733.06;;;10.46;80.12
64876;BME280;51369;49.862;9.908;2024-03-06T10:50:26;98731.06;;;10.51;80.11
64876;BME280;51369;49.862;9.908;2024-03-06T10:52:53;98730.84;;;10.57;79.70
64876;BME280;51369;49.862;9.908;2024-03-06T10:55:20;98733.19;;;10.66;79.67
64876;BME280;51369;49.862;9.908;2024-03-06T10:57:46;98735.56;;;10.75;80.30
64876;BME280;51369;49.862;9.908;2024-03-06T11:00:14;98737.84;;;10.86;79.72
64876;BME280;51369;49.862;9.908;2024-03-06T11:02:46;98731.22;;;10.95;78.36
64876;BME280;51369;49.862;9.908;2024-03-06T11:05:14;98729.88;;;11.06;77.96
64876;BME280;51369;49.862;9.908;2024-03-06T11:07:40;98732.22;;;11.16;78.19
64876;BME280;51369;49.862;9.908;2024-03-06T11:10:06;98732.59;;;11.28;78.41
64876;BME280;51369;49.862;9.908;2024-03-06T11:12:35;98740.34;;;11.37;78.01
64876;BME280;51369;49.862;9.908;2024-03-06T11:15:08;98743.75;;;11.43;77.56
64876;BME280;51369;49.862;9.908;2024-03-06T11:17:34;98734.44;;;11.50;77.36
64876;BME280;51369;49.862;9.908;2024-03-06T11:28:24;98749.91;;;11.68;76.31
64876;BME280;51369;49.862;9.908;2024-03-06T11:30:56;98738.03;;;11.72;75.87
64876;BME280;51369;49.862;9.908;2024-03-06T11:33:33;98751.34;;;11.77;76.52
64876;BME280;51369;49.862;9.908;2024-03-06T11:36:25;98753.09;;;11.79;76.43
64876;BME280;51369;49.862;9.908;2024-03-06T11:39:02;98746.41;;;11.88;75.84
64876;BME280;51369;49.862;9.908;2024-03-06T11:41:49;98740.19;;;11.86;75.00
64876;BME280;51369;49.862;9.908;2024-03-06T11:44:16;98748.38;;;11.84;75.27
64876;BME280;51369;49.862;9.908;2024-03-06T11:49:21;98736.66;;;11.84;75.16
64876;BME280;51369;49.862;9.908;2024-03-06T11:51:51;98726.66;;;11.86;74.79
64876;BME280;51369;49.862;9.908;2024-03-06T11:54:17;98731.06;;;11.88;74.45
64876;BME280;51369;49.862;9.908;2024-03-06T11:56:48;98733.63;;;11.91;74.12
64876;BME280;51369;49.862;9.908;2024-03-06T11:59:15;98734.25;;;11.98;74.71
64876;BME280;51369;49.862;9.908;2024-03-06T12:01:42;98726.69;;;12.06;74.85
64876;BME280;51369;49.862;9.908;2024-03-06T12:04:08;98730.09;;;12.11;74.36
64876;BME280;51369;49.862;9.908;2024-03-06T12:06:33;98737.16;;;12.14;73.33
64876;BME280;51369;49.862;9.908;2024-03-06T12:08:59;98737.69;;;12.22;73.18
64876;BME280;51369;49.862;9.908;2024-03-06T12:11:25;98735.75;;;12.25;72.64
64876;BME280;51369;49.862;9.908;2024-03-06T12:13:54;98740.06;;;12.29;72.52
64876;BME280;51369;49.862;9.908;2024-03-06T12:16:21;98740.88;;;12.31;72.57
64876;BME280;51369;49.862;9.908;2024-03-06T12:18:46;98740.00;;;12.31;71.21
64876;BME280;51369;49.862;9.908;2024-03-06T12:21:11;98743.59;;;12.31;72.10
64876;BME280;51369;49.862;9.908;2024-03-06T12:23:39;98743.66;;;12.30;71.74
64876;BME280;51369;49.862;9.908;2024-03-06T12:26:06;98738.25;;;12.30;71.66
64876;BME280;51369;49.862;9.908;2024-03-06T12:28:33;98737.50;;;12.26;70.74
64876;BME280;51369;49.862;9.908;2024-03-06T12:31:02;98752.94;;;12.24;69.61
64876;BME280;51369;49.862;9.908;2024-03-06T12:33:28;98741.16;;;12.25;69.92
64876;BME280;51369;49.862;9.908;2024-03-06T12:38:31;98740.88;;;12.31;70.35
64876;BME280;51369;49.862;9.908;2024-03-06T12:40:56;98748.81;;;12.36;70.39
64876;BME280;51369;49.862;9.908;2024-03-06T12:43:22;98737.03;;;12.37;70.23
64876;BME280;51369;49.862;9.908;2024-03-06T12:45:47;98737.97;;;12.36;70.12
64876;BME280;51369;49.862;9.908;2024-03-06T12:48:13;98737.91;;;12.37;70.82
64876;BME280;51369;49.862;9.908;2024-03-06T12:50:38;98730.59;;;12.39;71.04
64876;BME280;51369;49.862;9.908;2024-03-06T12:53:03;98738.59;;;12.43;70.01
64876;BME280;51369;49.862;9.908;2024-03-06T12:55:30;98736.69;;;12.45;69.85
64876;BME280;51369;49.862;9.908;2024-03-06T12:57:57;98738.44;;;12.46;69.55
64876;BME280;51369;49.862;9.908;2024-03-06T13:00:22;98740.16;;;12.48;70.53
64876;BME280;51369;49.862;9.908;2024-03-06T13:02:49;98738.19;;;12.52;70.10
64876;BME280;51369;49.862;9.908;2024-03-06T13:05:17;98741.34;;;12.61;69.48
64876;BME280;51369;49.862;9.908;2024-03-06T13:07:45;98740.41;;;12.62;68.37
64876;BME280;51369;49.862;9.908;2024-03-06T13:10:11;98735.81;;;12.64;68.02
64876;BME280;51369;49.862;9.908;2024-03-06T13:12:39;98732.94;;;12.67;68.06
64876;BME280;51369;49.862;9.908;2024-03-06T13:15:05;98731.78;;;12.73;68.04
64876;BME280;51369;49.862;9.908;2024-03-06T13:17:33;98731.66;;;12.76;67.58
64876;BME280;51369;49.862;9.908;2024-03-06T13:19:58;98732.09;;;12.86;67.51
64876;BME280;51369;49.862;9.908;2024-03-06T13:22:24;98730.81;;;12.94;67.12